Terminal Aerodrome Forecast
Issued by NWS Jackson, KY

Home | Current Version | Previous Version | Text Only | Print | Product List | Glossary On
Versions: 1 2 3 4 5 6 7 8 9 10 11 12 13 14 15 16 17 18 19 20 21 22 23
000
FTUS43 KJKL 181721
TAFJKL
TAF
KJKL 181721Z 1818/1918 VRB04KT P6SM FEW050 OVC250
     FM190600 12005KT P6SM VCSH SCT030 BKN080
     FM191000 11005KT 5SM -SHRA BR VCTS BKN030CB OVC100
     FM191300 12005KT 3SM SHRA VCTS BKN020 OVC050CB=

USA.gov is the U.S. government's official web portal to all federal, state and local government web resources and services.